Time;durP1;ratioP1;P1;durP2;ratioP2;P2;SDS_P1;SDS_P2;PMS_P1;PMS_P2;Temp;Humidity;BMP_temperature;BMP_pressure;BME280_temperature;BME280_humidity;BME280_pressure;Samples;Min_cycle;Max_cycle;Signal;HPM_P1;HPM_P2
2023/10/28 00:01:55;;;;;;;1.38;0.52;;;10.90;99.90;;;;;;5033413;28;20087;-60
2023/10/28 00:04:23;;;;;;;1.30;0.60;;;10.90;99.90;;;;;;5033373;28;20033;-57
2023/10/28 00:06:49;;;;;;;2.53;0.85;;;10.80;99.90;;;;;;5033237;28;20033;-58
2023/10/28 00:09:15;;;;;;;4.90;0.70;;;10.80;99.90;;;;;;5033222;28;20017;-58
2023/10/28 00:11:41;;;;;;;0.63;0.40;;;10.70;99.90;;;;;;5033241;28;20476;-57
2023/10/28 00:14:07;;;;;;;1.30;0.60;;;10.70;99.90;;;;;;5032884;28;20431;-56
2023/10/28 00:16:33;;;;;;;1.50;0.50;;;10.70;99.90;;;;;;5033061;28;20017;-59
2023/10/28 00:18:59;;;;;;;2.67;0.47;;;10.70;99.90;;;;;;5032760;28;20033;-58
2023/10/28 00:21:25;;;;;;;0.77;0.40;;;10.70;99.90;;;;;;5033019;28;20044;-58
2023/10/28 00:23:51;;;;;;;2.50;0.60;;;10.60;99.90;;;;;;5031675;28;20108;-58
2023/10/28 00:26:16;;;;;;;2.50;0.90;;;10.60;99.90;;;;;;5032691;28;20021;-58
2023/10/28 00:28:42;;;;;;;2.58;0.80;;;10.60;99.90;;;;;;5032765;28;20029;-58
2023/10/28 00:31:07;;;;;;;0.63;0.40;;;10.60;99.90;;;;;;5032608;28;20023;-58
2023/10/28 00:33:36;;;;;;;2.05;0.50;;;10.60;99.90;;;;;;5032948;28;20021;-57
2023/10/28 00:36:09;;;;;;;0.80;0.60;;;10.60;99.90;;;;;;5032516;28;20025;-59
2023/10/28 00:38:34;;;;;;;0.85;0.47;;;10.60;99.90;;;;;;5032831;28;20121;-58
2023/10/28 00:41:00;;;;;;;3.38;0.70;;;10.60;99.90;;;;;;5032459;28;20560;-58
2023/10/28 00:43:27;;;;;;;2.13;0.45;;;10.60;99.90;;;;;;5032405;28;20033;-57
2023/10/28 00:45:54;;;;;;;1.33;0.52;;;10.60;99.90;;;;;;5032694;28;20065;-58
2023/10/28 00:48:20;;;;;;;1.27;0.50;;;10.70;99.90;;;;;;5032601;28;20061;-58
2023/10/28 00:50:46;;;;;;;0.50;0.38;;;10.70;99.90;;;;;;5032183;28;20519;-57
2023/10/28 00:53:11;;;;;;;0.70;0.50;;;10.70;99.90;;;;;;5032201;28;20476;-58
2023/10/28 00:55:37;;;;;;;1.88;0.70;;;10.70;99.90;;;;;;5032654;28;20092;-58
2023/10/28 00:58:03;;;;;;;1.10;0.40;;;10.70;99.90;;;;;;5032127;28;20018;-57
2023/10/28 01:00:29;;;;;;;3.15;0.80;;;10.70;99.90;;;;;;5032158;28;20104;-54
2023/10/28 01:02:55;;;;;;;1.83;0.50;;;10.70;99.90;;;;;;5032269;28;20029;-57
2023/10/28 01:05:22;;;;;;;5.68;0.70;;;10.70;99.90;;;;;;5030392;28;20561;-58
2023/10/28 01:07:49;;;;;;;1.13;0.55;;;10.70;99.90;;;;;;5032423;28;20060;-58
2023/10/28 01:10:26;;;;;;;1.67;0.50;;;10.70;99.90;;;;;;5032191;28;20024;-57
2023/10/28 01:12:52;;;;;;;0.77;0.52;;;10.70;99.90;;;;;;5031900;28;20029;-60
2023/10/28 01:15:17;;;;;;;2.38;0.93;;;10.70;99.90;;;;;;5032126;28;20039;-55
2023/10/28 01:17:43;;;;;;;3.42;0.52;;;10.70;99.90;;;;;;5031575;28;20029;-56
2023/10/28 01:20:10;;;;;;;0.60;0.60;;;10.70;99.90;;;;;;5031953;28;20083;-56
2023/10/28 01:22:36;;;;;;;0.30;0.30;;;10.70;99.90;;;;;;5032158;28;20030;-61
2023/10/28 01:25:02;;;;;;;3.30;0.50;;;10.70;99.90;;;;;;5031921;28;20021;-58
2023/10/28 01:27:28;;;;;;;1.08;0.45;;;10.70;99.90;;;;;;5031785;28;20041;-58
2023/10/28 01:29:55;;;;;;;0.52;0.43;;;10.70;99.90;;;;;;5031299;28;20117;-57
2023/10/28 01:32:20;;;;;;;0.93;0.45;;;10.70;99.90;;;;;;5031678;28;20029;-57
2023/10/28 01:34:50;;;;;;;0.65;0.40;;;10.70;99.90;;;;;;5031436;28;20028;-57
2023/10/28 01:37:17;;;;;;;6.20;0.40;;;10.70;99.90;;;;;;5031758;28;20091;-58
2023/10/28 01:39:46;;;;;;;1.30;0.40;;;10.70;99.90;;;;;;5031648;28;20041;-57
2023/10/28 01:42:13;;;;;;;0.47;0.40;;;10.70;99.90;;;;;;5031431;28;20056;-57
2023/10/28 01:44:42;;;;;;;1.70;0.80;;;10.70;99.90;;;;;;5031356;28;20060;-55
2023/10/28 01:47:10;;;;;;;1.55;0.40;;;10.70;99.90;;;;;;5030696;28;20083;-58
2023/10/28 01:49:36;;;;;;;4.72;0.50;;;10.70;99.90;;;;;;5030954;28;20033;-58
2023/10/28 01:52:03;;;;;;;1.63;0.43;;;10.80;99.90;;;;;;5030960;28;20036;-56
2023/10/28 01:54:30;;;;;;;1.02;0.38;;;10.80;99.90;;;;;;5031093;28;20053;-55
2023/10/28 01:56:57;;;;;;;1.05;0.35;;;10.80;99.90;;;;;;5030767;28;20024;-58
2023/10/28 01:59:25;;;;;;;0.35;0.30;;;10.80;99.90;;;;;;5030455;28;20091;-58
2023/10/28 02:01:50;;;;;;;1.00;0.30;;;10.80;99.90;;;;;;5030857;28;20033;-59
2023/10/28 02:04:16;;;;;;;2.75;0.50;;;10.80;99.90;;;;;;5029335;28;20104;-58
2023/10/28 02:06:41;;;;;;;2.45;0.60;;;10.80;99.90;;;;;;5031033;28;20057;-55
2023/10/28 02:09:08;;;;;;;3.20;0.63;;;10.90;99.90;;;;;;5031133;28;20092;-55
2023/10/28 02:11:34;;;;;;;2.75;0.65;;;10.90;99.90;;;;;;5030387;28;20503;-54
2023/10/28 02:14:00;;;;;;;1.08;0.40;;;10.80;99.90;;;;;;5030425;28;20485;-55
2023/10/28 02:16:26;;;;;;;1.27;0.40;;;10.90;99.90;;;;;;5030270;28;20022;-57
2023/10/28 02:18:51;;;;;;;1.05;0.47;;;10.90;99.90;;;;;;5030531;28;20374;-57
2023/10/28 02:21:20;;;;;;;1.33;0.60;;;10.90;99.90;;;;;;5030483;28;20017;-58
2023/10/28 02:23:47;;;;;;;2.08;0.60;;;10.90;99.90;;;;;;5030457;28;20110;-58
2023/10/28 02:26:13;;;;;;;0.98;0.43;;;10.90;99.90;;;;;;5029820;28;20025;-56
2023/10/28 02:28:39;;;;;;;5.18;0.70;;;10.90;99.90;;;;;;5029914;28;20100;-58
2023/10/28 02:31:10;;;;;;;0.82;0.57;;;10.90;99.90;;;;;;5030287;28;20083;-58
2023/10/28 02:33:36;;;;;;;2.00;0.45;;;10.90;99.90;;;;;;5030447;28;20021;-58
2023/10/28 02:36:11;;;;;;;1.95;0.60;;;10.90;99.90;;;;;;5030562;28;20026;-57
2023/10/28 02:38:37;;;;;;;5.00;0.60;;;11.00;99.90;;;;;;5029976;28;20037;-54
2023/10/28 02:41:06;;;;;;;1.23;0.38;;;11.00;99.90;;;;;;5030576;28;20034;-56
2023/10/28 02:43:35;;;;;;;2.25;0.50;;;11.00;99.90;;;;;;5030040;28;20020;-54
2023/10/28 02:46:03;;;;;;;2.83;0.40;;;11.00;99.90;;;;;;5030418;28;20107;-54
2023/10/28 02:48:29;;;;;;;3.53;0.52;;;11.10;99.90;;;;;;5030242;28;20031;-59
2023/10/28 02:50:54;;;;;;;1.35;0.40;;;11.10;99.90;;;;;;5030047;28;20112;-56
2023/10/28 02:53:20;;;;;;;1.60;0.50;;;11.10;99.90;;;;;;5030282;28;20117;-55
2023/10/28 02:55:45;;;;;;;0.82;0.40;;;11.10;99.90;;;;;;5030171;28;20067;-54
2023/10/28 02:58:12;;;;;;;0.63;0.30;;;11.10;99.90;;;;;;5029876;28;20056;-57
2023/10/28 03:00:37;;;;;;;1.85;0.40;;;11.10;99.90;;;;;;5029803;28;20488;-52
2023/10/28 03:03:03;;;;;;;1.90;0.60;;;11.00;99.90;;;;;;5030534;28;20028;-57
2023/10/28 03:05:29;;;;;;;0.93;0.20;;;11.00;99.90;;;;;;5030149;28;20048;-53
2023/10/28 03:07:55;;;;;;;1.58;0.60;;;11.00;99.90;;;;;;5030404;28;20386;-54
2023/10/28 03:10:21;;;;;;;0.40;0.28;;;11.00;99.90;;;;;;5030183;28;20029;-50
2023/10/28 03:12:47;;;;;;;2.00;0.32;;;11.00;99.90;;;;;;5030063;28;20030;-55
2023/10/28 03:15:13;;;;;;;0.25;0.25;;;11.00;99.90;;;;;;5032981;28;20571;-62
2023/10/28 03:17:39;;;;;;;0.68;0.40;;;11.00;99.90;;;;;;5033702;28;20117;-51
2023/10/28 03:20:10;;;;;;;2.00;0.50;;;10.90;99.90;;;;;;5034419;28;20116;-54
2023/10/28 03:22:36;;;;;;;0.73;0.40;;;10.90;99.90;;;;;;5033790;28;20041;-53
2023/10/28 03:25:03;;;;;;;0.50;0.20;;;10.90;99.90;;;;;;5034035;28;20076;-51
2023/10/28 03:27:29;;;;;;;0.47;0.32;;;10.90;99.90;;;;;;5034361;28;20029;-55
2023/10/28 03:29:55;;;;;;;0.55;0.30;;;10.80;99.90;;;;;;5033551;28;20034;-57
2023/10/28 03:32:21;;;;;;;2.05;0.50;;;10.80;99.90;;;;;;5034219;28;20075;-51
2023/10/28 03:34:47;;;;;;;1.20;0.50;;;10.80;99.90;;;;;;5033823;28;20491;-56
2023/10/28 03:37:12;;;;;;;0.90;0.20;;;10.80;99.90;;;;;;5034004;28;20060;-57
2023/10/28 03:39:38;;;;;;;1.65;0.68;;;10.80;99.90;;;;;;5033688;28;20034;-53
2023/10/28 03:42:07;;;;;;;2.00;0.30;;;10.80;99.90;;;;;;5033702;28;20029;-53
2023/10/28 03:44:33;;;;;;;1.30;0.40;;;10.80;99.90;;;;;;5033509;28;20021;-54
2023/10/28 03:46:59;;;;;;;1.30;0.38;;;10.80;99.90;;;;;;5034113;28;20115;-57
2023/10/28 03:49:25;;;;;;;1.38;0.43;;;10.80;99.90;;;;;;5033715;28;20048;-49
2023/10/28 03:51:50;;;;;;;0.65;0.40;;;10.80;99.90;;;;;;5033535;28;20083;-50
2023/10/28 03:54:16;;;;;;;0.75;0.30;;;10.80;99.90;;;;;;5033291;28;20032;-51
2023/10/28 03:56:42;;;;;;;1.85;0.50;;;10.90;99.90;;;;;;5015645;28;20038;-52
2023/10/28 03:59:07;;;;;;;0.75;0.40;;;10.90;99.90;;;;;;5033052;28;20528;-50
2023/10/28 04:01:33;;;;;;;0.32;0.32;;;10.90;99.90;;;;;;5033320;28;20022;-51
2023/10/28 04:03:58;;;;;;;1.40;0.40;;;10.90;99.90;;;;;;5033447;28;20025;-54
2023/10/28 04:06:25;;;;;;;1.02;0.40;;;10.90;99.90;;;;;;5033406;28;20029;-53
2023/10/28 04:08:51;;;;;;;1.85;0.50;;;10.90;99.90;;;;;;5033197;28;20057;-50
2023/10/28 04:11:16;;;;;;;2.47;0.55;;;10.90;99.90;;;;;;5033535;28;20022;-54
2023/10/28 04:13:42;;;;;;;1.38;0.50;;;11.00;99.90;;;;;;5032978;28;20033;-50
2023/10/28 04:16:07;;;;;;;1.00;0.50;;;11.00;99.90;;;;;;5033027;28;20477;-57
2023/10/28 04:18:33;;;;;;;3.53;0.50;;;11.00;99.90;;;;;;5032955;28;20095;-52
2023/10/28 04:20:59;;;;;;;1.25;0.50;;;11.00;99.90;;;;;;5032829;28;20021;-53
2023/10/28 04:23:25;;;;;;;1.98;0.40;;;11.00;99.90;;;;;;5033106;28;20025;-50
2023/10/28 04:25:50;;;;;;;3.70;0.45;;;11.00;99.90;;;;;;5032113;28;20036;-50
2023/10/28 04:28:16;;;;;;;1.95;0.73;;;11.00;99.90;;;;;;5032867;28;20018;-53
2023/10/28 04:30:41;;;;;;;0.45;0.30;;;11.10;99.90;;;;;;5032959;28;20034;-52
2023/10/28 04:33:07;;;;;;;1.35;0.43;;;11.00;99.90;;;;;;5032721;28;20476;-54
2023/10/28 04:35:33;;;;;;;3.53;0.70;;;11.00;99.90;;;;;;5032836;28;20029;-52
2023/10/28 04:37:58;;;;;;;0.65;0.30;;;11.10;99.90;;;;;;5032350;28;20024;-51
2023/10/28 04:40:27;;;;;;;2.75;0.60;;;11.10;99.90;;;;;;5032908;28;20160;-54
2023/10/28 04:42:53;;;;;;;1.20;0.47;;;11.10;99.90;;;;;;5032688;28;20025;-53
2023/10/28 04:45:21;;;;;;;0.52;0.40;;;11.10;99.90;;;;;;5032633;28;20021;-50
2023/10/28 04:47:47;;;;;;;3.47;0.63;;;11.10;99.90;;;;;;5032787;28;20476;-53
2023/10/28 04:50:13;;;;;;;3.35;0.57;;;11.10;99.90;;;;;;5032524;28;20029;-58
2023/10/28 04:52:40;;;;;;;2.95;0.47;;;11.10;99.90;;;;;;5032468;28;20037;-46
2023/10/28 04:55:05;;;;;;;3.03;0.57;;;11.10;99.90;;;;;;5032552;28;20021;-51
2023/10/28 04:57:31;;;;;;;6.43;0.50;;;11.10;99.90;;;;;;5032575;28;20029;-54
2023/10/28 04:59:57;;;;;;;1.17;0.38;;;11.10;99.90;;;;;;5032006;28;20119;-54
2023/10/28 05:02:22;;;;;;;1.80;0.50;;;11.10;99.90;;;;;;5032422;28;20102;-54
2023/10/28 05:04:48;;;;;;;1.73;0.60;;;11.00;99.90;;;;;;5032385;28;20029;-49
2023/10/28 05:07:13;;;;;;;2.30;0.47;;;11.10;99.90;;;;;;5032306;28;20035;-47
2023/10/28 05:09:39;;;;;;;4.72;0.50;;;11.10;99.90;;;;;;5032300;28;20080;-49
2023/10/28 05:12:04;;;;;;;1.85;0.47;;;11.00;99.90;;;;;;5032411;28;20028;-57
2023/10/28 05:14:30;;;;;;;1.42;0.47;;;11.10;99.90;;;;;;5032068;28;20037;-55
2023/10/28 05:16:56;;;;;;;3.20;0.28;;;11.10;99.90;;;;;;5032140;28;20104;-56
2023/10/28 05:19:24;;;;;;;2.05;0.30;;;11.00;99.90;;;;;;5031888;28;20033;-58
2023/10/28 05:21:50;;;;;;;1.08;0.60;;;11.00;99.90;;;;;;5032016;28;20025;-53
2023/10/28 05:24:16;;;;;;;3.20;0.47;;;11.10;99.90;;;;;;5031665;28;20029;-55
2023/10/28 05:26:45;;;;;;;1.38;0.38;;;11.10;99.90;;;;;;5032083;28;20025;-56
2023/10/28 05:29:11;;;;;;;1.50;0.50;;;11.10;99.90;;;;;;5031744;28;20033;-59
2023/10/28 05:31:36;;;;;;;3.92;0.75;;;11.10;99.90;;;;;;5032029;28;20022;-58
2023/10/28 05:34:02;;;;;;;1.88;0.40;;;11.10;99.90;;;;;;5031764;28;20542;-56
2023/10/28 05:36:28;;;;;;;5.30;0.60;;;11.10;99.90;;;;;;5031704;28;20021;-59
2023/10/28 05:38:54;;;;;;;4.68;0.40;;;11.20;99.90;;;;;;5030550;28;20048;-57
2023/10/28 05:41:20;;;;;;;3.63;0.52;;;11.20;99.90;;;;;;5031704;28;20040;-58
2023/10/28 05:43:46;;;;;;;1.40;0.52;;;11.20;99.90;;;;;;5031524;28;20018;-55
2023/10/28 05:46:13;;;;;;;3.28;0.50;;;11.20;99.90;;;;;;5031479;28;20025;-51
2023/10/28 05:48:39;;;;;;;4.80;0.57;;;11.20;99.90;;;;;;5031605;28;20020;-55
2023/10/28 05:51:05;;;;;;;0.75;0.30;;;11.20;99.90;;;;;;5031798;28;20029;-53
2023/10/28 05:53:31;;;;;;;4.05;0.60;;;11.20;99.90;;;;;;5031455;28;20022;-50
2023/10/28 05:55:57;;;;;;;3.50;0.50;;;11.20;99.90;;;;;;5031575;28;20075;-50
2023/10/28 05:58:23;;;;;;;5.43;0.57;;;11.20;99.90;;;;;;5031140;28;20111;-52
2023/10/28 06:00:49;;;;;;;3.35;1.10;;;11.20;99.90;;;;;;5030944;28;20468;-54
2023/10/28 06:03:14;;;;;;;4.45;0.75;;;11.20;99.90;;;;;;5031235;28;20068;-53
2023/10/28 06:05:40;;;;;;;2.30;0.40;;;11.20;99.90;;;;;;5030925;28;20044;-52
2023/10/28 06:08:08;;;;;;;9.15;0.75;;;11.20;99.90;;;;;;5031426;28;20040;-54
2023/10/28 06:10:34;;;;;;;1.20;0.57;;;11.10;99.90;;;;;;5031105;28;20112;-50
2023/10/28 06:13:01;;;;;;;0.95;0.73;;;11.10;99.90;;;;;;5030948;28;20510;-59
2023/10/28 06:15:26;;;;;;;2.08;0.50;;;11.20;99.90;;;;;;5031590;28;20064;-53
2023/10/28 06:17:52;;;;;;;3.92;0.80;;;11.10;99.90;;;;;;5030529;28;20061;-49
2023/10/28 06:20:19;;;;;;;0.52;0.30;;;11.10;99.90;;;;;;5030000;28;20385;-54
2023/10/28 06:22:45;;;;;;;1.48;0.38;;;11.10;99.90;;;;;;5030456;28;20033;-54
2023/10/28 06:25:11;;;;;;;0.45;0.40;;;11.10;99.90;;;;;;5030801;28;20095;-58
2023/10/28 06:27:36;;;;;;;0.95;0.50;;;11.10;99.90;;;;;;5030571;28;20100;-58
2023/10/28 06:30:02;;;;;;;0.28;0.28;;;11.10;99.90;;;;;;5030610;28;20112;-58
2023/10/28 06:32:28;;;;;;;1.23;0.30;;;11.10;99.90;;;;;;5030641;28;20116;-56
2023/10/28 06:34:54;;;;;;;3.65;0.70;;;11.10;99.90;;;;;;5030823;28;20108;-55
2023/10/28 06:37:20;;;;;;;0.52;0.43;;;11.10;99.90;;;;;;5030772;28;20033;-57
2023/10/28 06:39:47;;;;;;;4.05;0.60;;;11.10;99.90;;;;;;5030622;28;20037;-56
2023/10/28 06:42:13;;;;;;;3.72;0.57;;;11.00;99.90;;;;;;5030673;28;20025;-56
2023/10/28 06:44:39;;;;;;;3.50;0.50;;;11.00;99.90;;;;;;5030708;28;20029;-58
2023/10/28 06:47:05;;;;;;;0.85;0.50;;;11.00;99.90;;;;;;5030505;28;20033;-49
2023/10/28 06:49:31;;;;;;;2.05;0.50;;;11.00;99.90;;;;;;5030333;28;20025;-56
2023/10/28 06:51:57;;;;;;;2.22;0.40;;;11.00;99.90;;;;;;5030484;28;20017;-58
2023/10/28 06:54:24;;;;;;;2.97;0.40;;;11.00;99.90;;;;;;5030770;28;20030;-56
2023/10/28 06:56:50;;;;;;;3.20;0.43;;;10.90;99.90;;;;;;5030508;28;20071;-56
2023/10/28 06:59:16;;;;;;;1.50;0.50;;;10.90;99.90;;;;;;5030255;28;20049;-55
2023/10/28 07:01:42;;;;;;;0.55;0.30;;;10.90;99.90;;;;;;5030097;28;20025;-53
2023/10/28 07:04:07;;;;;;;2.05;0.38;;;10.90;99.90;;;;;;5020947;28;20033;-54
2023/10/28 07:06:33;;;;;;;1.48;0.38;;;10.90;99.90;;;;;;5019468;28;20076;-57
2023/10/28 07:08:58;;;;;;;1.83;0.38;;;10.90;99.90;;;;;;5030354;28;20038;-53
2023/10/28 07:11:24;;;;;;;0.65;0.30;;;10.90;99.90;;;;;;5022880;28;20083;-52
2023/10/28 07:13:50;;;;;;;4.32;0.52;;;10.90;99.90;;;;;;5030203;28;20029;-51
2023/10/28 07:16:17;;;;;;;4.40;0.47;;;10.90;99.90;;;;;;5030306;28;20021;-56
2023/10/28 07:18:43;;;;;;;0.90;0.35;;;10.90;99.90;;;;;;5030291;28;20029;-55
2023/10/28 07:21:09;;;;;;;1.55;0.52;;;11.00;99.90;;;;;;5030314;28;20014;-57
2023/10/28 07:23:35;;;;;;;0.50;0.40;;;11.00;99.90;;;;;;5030307;28;20082;-52
2023/10/28 07:26:01;;;;;;;0.57;0.30;;;11.00;99.90;;;;;;5030189;28;20018;-56
2023/10/28 07:28:33;;;;;;;2.90;0.82;;;11.00;99.90;;;;;;5030421;28;20057;-52
2023/10/28 07:31:00;;;;;;;3.60;0.80;;;11.00;99.90;;;;;;5029931;28;20396;-55
2023/10/28 07:33:25;;;;;;;4.53;0.70;;;11.00;99.90;;;;;;5030390;28;20017;-54
2023/10/28 07:35:51;;;;;;;3.97;0.60;;;11.00;99.90;;;;;;5030128;28;20417;-52
2023/10/28 07:38:17;;;;;;;3.83;0.65;;;11.00;99.90;;;;;;5030183;28;20026;-52
2023/10/28 07:40:44;;;;;;;3.03;0.77;;;11.10;99.90;;;;;;5030080;28;20045;-57
2023/10/28 07:43:13;;;;;;;3.92;0.63;;;11.10;99.90;;;;;;5027570;28;20075;-55
2023/10/28 07:45:40;;;;;;;1.05;0.50;;;11.10;99.90;;;;;;5020508;28;20376;-54
2023/10/28 07:48:06;;;;;;;2.40;0.32;;;11.10;99.90;;;;;;5029789;28;20480;-54
2023/10/28 07:50:33;;;;;;;2.17;0.45;;;11.10;99.90;;;;;;5030229;28;20072;-57
2023/10/28 07:52:59;;;;;;;1.48;0.40;;;11.10;99.90;;;;;;5029646;28;20118;-55
2023/10/28 07:55:24;;;;;;;4.05;1.33;;;11.10;99.90;;;;;;5019400;28;20471;-58
2023/10/28 07:57:50;;;;;;;1.75;0.73;;;11.10;99.90;;;;;;5018157;28;20535;-56
2023/10/28 08:00:16;;;;;;;0.82;0.40;;;11.10;99.90;;;;;;5029430;28;20433;-56
2023/10/28 08:02:45;;;;;;;2.22;1.13;;;11.10;99.90;;;;;;5033210;28;20025;-55
2023/10/28 08:05:11;;;;;;;5.35;0.95;;;11.10;99.90;;;;;;5033557;28;20119;-54
2023/10/28 08:07:37;;;;;;;1.23;0.60;;;11.00;99.90;;;;;;5033398;28;20032;-52
2023/10/28 08:10:04;;;;;;;4.60;0.57;;;11.10;99.90;;;;;;5033265;28;20026;-57
2023/10/28 08:12:30;;;;;;;2.10;0.47;;;11.00;99.90;;;;;;5033242;28;20021;-52
2023/10/28 08:14:56;;;;;;;3.60;0.57;;;11.00;99.90;;;;;;5033474;28;20038;-55
2023/10/28 08:17:21;;;;;;;2.72;0.70;;;11.00;99.90;;;;;;5033058;28;20029;-57
2023/10/28 08:19:47;;;;;;;1.05;0.40;;;11.00;99.90;;;;;;5033200;28;20044;-58
2023/10/28 08:22:14;;;;;;;2.10;1.25;;;11.00;99.90;;;;;;5033280;28;20021;-60
2023/10/28 08:24:40;;;;;;;5.15;0.82;;;11.00;99.90;;;;;;5033017;28;20538;-60
2023/10/28 08:27:05;;;;;;;2.97;0.73;;;11.10;99.90;;;;;;5032769;28;20033;-60
2023/10/28 08:29:34;;;;;;;3.22;0.75;;;11.10;99.90;;;;;;5032817;28;20040;-58
2023/10/28 08:32:00;;;;;;;3.60;0.90;;;11.10;99.90;;;;;;5032974;28;20548;-59
2023/10/28 08:34:26;;;;;;;4.13;0.80;;;11.10;99.90;;;;;;5032284;28;20116;-56
2023/10/28 08:36:52;;;;;;;6.55;1.00;;;11.20;99.90;;;;;;5021804;28;20028;-57
2023/10/28 08:39:19;;;;;;;6.47;1.13;;;11.30;99.90;;;;;;5032029;28;20084;-56
2023/10/28 08:41:46;;;;;;;6.82;1.02;;;11.30;99.90;;;;;;5032412;28;20079;-52
2023/10/28 08:44:14;;;;;;;5.20;0.90;;;11.30;99.90;;;;;;5032465;28;20056;-51
2023/10/28 08:46:41;;;;;;;14.00;2.15;;;11.40;99.90;;;;;;5032557;28;20014;-53
2023/10/28 08:49:10;;;;;;;7.85;1.50;;;11.40;99.90;;;;;;5032144;28;20026;-52
2023/10/28 08:51:41;;;;;;;5.80;0.98;;;11.50;99.90;;;;;;5032002;28;20087;-53
2023/10/28 08:54:10;;;;;;;4.53;1.00;;;11.60;99.90;;;;;;5031957;28;20022;-54
2023/10/28 08:56:38;;;;;;;6.83;0.90;;;11.70;99.90;;;;;;5032146;28;20025;-52
2023/10/28 08:59:04;;;;;;;6.55;1.13;;;11.80;99.90;;;;;;5031761;28;20128;-54
2023/10/28 09:01:29;;;;;;;9.27;1.45;;;11.90;99.90;;;;;;5030472;28;20282;-52
2023/10/28 09:04:00;;;;;;;7.32;1.00;;;12.00;99.90;;;;;;5029907;28;20218;-58
2023/10/28 09:06:26;;;;;;;5.82;1.10;;;12.20;99.90;;;;;;5024083;28;20056;-58
2023/10/28 09:08:52;;;;;;;6.43;1.30;;;12.60;99.90;;;;;;5031871;28;20045;-59
2023/10/28 09:11:19;;;;;;;6.15;1.10;;;13.10;99.90;;;;;;5032081;28;20056;-58
2023/10/28 09:13:45;;;;;;;13.07;1.13;;;13.80;99.90;;;;;;5032010;28;20024;-57
2023/10/28 09:16:14;;;;;;;5.03;0.60;;;14.10;99.90;;;;;;5031641;28;20104;-58
2023/10/28 09:18:41;;;;;;;5.67;0.93;;;14.50;99.90;;;;;;5032003;28;20024;-58
2023/10/28 09:21:11;;;;;;;3.58;1.30;;;15.00;99.90;;;;;;5031782;28;20270;-55
2023/10/28 09:23:38;;;;;;;11.02;1.27;;;15.40;99.90;;;;;;5031885;28;20033;-59
2023/10/28 09:26:04;;;;;;;5.07;0.85;;;15.20;99.90;;;;;;5030678;28;20075;-57
2023/10/28 09:28:33;;;;;;;2.45;0.70;;;14.90;99.90;;;;;;5031703;28;20119;-58
2023/10/28 09:30:59;;;;;;;8.73;1.15;;;14.60;99.90;;;;;;5031388;28;20124;-58
2023/10/28 09:33:27;;;;;;;3.17;0.70;;;14.20;99.90;;;;;;5029760;28;20108;-59
2023/10/28 09:35:53;;;;;;;9.13;1.00;;;14.00;99.90;;;;;;5029547;28;20091;-59
2023/10/28 09:38:20;;;;;;;5.13;0.95;;;13.80;99.90;;;;;;5029812;28;20052;-59
2023/10/28 09:40:47;;;;;;;3.78;0.88;;;13.80;99.90;;;;;;5029656;28;20033;-58
2023/10/28 09:43:15;;;;;;;9.32;1.15;;;13.60;99.90;;;;;;5029893;28;20033;-58
2023/10/28 09:45:42;;;;;;;5.05;0.90;;;13.50;99.90;;;;;;5029873;28;20037;-59
2023/10/28 09:48:14;;;;;;;5.47;1.08;;;13.40;99.90;;;;;;5029568;28;20068;-58
2023/10/28 09:50:49;;;;;;;4.65;0.82;;;13.20;99.90;;;;;;5031490;28;20017;-58
2023/10/28 09:53:30;;;;;;;2.67;0.90;;;13.00;99.90;;;;;;5031451;28;20030;-59
2023/10/28 09:55:57;;;;;;;3.25;0.63;;;12.90;99.90;;;;;;5030757;28;20036;-59
2023/10/28 09:58:45;;;;;;;4.32;0.80;;;12.80;99.90;;;;;;5027956;28;20045;-59
2023/10/28 10:01:24;;;;;;;5.45;1.60;;;12.70;99.90;;;;;;5027038;28;20493;-59
2023/10/28 10:03:56;;;;;;;1.50;0.70;;;12.70;99.90;;;;;;5030483;28;20053;-60
2023/10/28 10:06:23;;;;;;;6.57;1.52;;;12.70;99.90;;;;;;5030802;28;20087;-60
2023/10/28 10:08:50;;;;;;;6.50;1.02;;;12.90;99.90;;;;;;5032812;28;20480;-61
2023/10/28 10:11:26;;;;;;;8.23;1.38;;;13.30;99.90;;;;;;5036428;28;20485;-58
2023/10/28 10:13:53;;;;;;;2.83;1.10;;;13.50;99.90;;;;;;5029352;28;20072;-58
2023/10/28 10:16:52;;;;;;;5.68;1.30;;;13.80;99.90;;;;;;5034867;28;20025;-61
2023/10/28 10:19:34;;;;;;;8.65;1.30;;;14.20;99.90;;;;;;5028186;28;20091;-57
2023/10/28 10:22:05;;;;;;;8.02;1.25;;;15.00;99.90;;;;;;5036299;28;20040;-57
2023/10/28 10:24:31;;;;;;;9.27;1.40;;;16.50;99.90;;;;;;5028822;28;20025;-57
2023/10/28 10:27:02;;;;;;;6.18;1.45;;;17.80;99.90;;;;;;5030711;28;20009;-57
2023/10/28 10:29:42;;;;;;;7.15;1.05;;;18.80;99.90;;;;;;5030814;28;20556;-56
2023/10/28 10:32:18;;;;;;;6.47;1.20;;;18.90;99.90;;;;;;5028433;28;20406;-58
2023/10/28 10:34:46;;;;;;;6.47;1.50;;;18.80;99.90;;;;;;5029912;28;20099;-56
2023/10/28 10:37:22;;;;;;;8.07;1.75;;;18.40;99.90;;;;;;5030148;28;20476;-57
2023/10/28 10:39:48;;;;;;;7.32;0.95;;;17.50;99.90;;;;;;5030097;28;20069;-58
2023/10/28 10:42:14;;;;;;;5.22;1.35;;;16.70;99.90;;;;;;5030192;28;20425;-57
2023/10/28 10:44:40;;;;;;;5.32;1.10;;;16.00;99.90;;;;;;5029992;28;20044;-60
2023/10/28 10:47:08;;;;;;;5.45;1.00;;;15.60;99.90;;;;;;5030450;28;20093;-57
2023/10/28 10:49:36;;;;;;;9.00;1.52;;;15.10;99.90;;;;;;5030178;28;20079;-56
2023/10/28 10:52:03;;;;;;;7.55;1.50;;;14.80;99.90;;;;;;5030622;28;20026;-57
2023/10/28 10:54:34;;;;;;;10.60;1.95;;;14.50;99.90;;;;;;5030480;28;20022;-55
2023/10/28 10:57:00;;;;;;;13.68;2.25;;;14.40;99.90;;;;;;5030401;28;20067;-57
2023/10/28 10:59:32;;;;;;;12.13;1.98;;;14.40;99.90;;;;;;5030086;28;20101;-56
2023/10/28 11:02:00;;;;;;;8.25;2.10;;;14.20;99.90;;;;;;5030418;28;20495;-59
2023/10/28 11:04:26;;;;;;;9.57;2.05;;;14.00;99.90;;;;;;5030340;28;20029;-60
2023/10/28 11:06:51;;;;;;;5.13;1.23;;;13.60;99.90;;;;;;5030370;28;20135;-60
2023/10/28 11:09:17;;;;;;;4.00;0.93;;;13.40;99.90;;;;;;5029987;28;20365;-60
2023/10/28 11:11:43;;;;;;;6.22;1.38;;;13.20;99.90;;;;;;5030206;28;20030;-58
2023/10/28 11:14:09;;;;;;;7.07;1.23;;;13.10;99.90;;;;;;5028464;28;20186;-59
2023/10/28 11:16:35;;;;;;;5.32;1.27;;;13.10;99.90;;;;;;5028353;28;20045;-58
2023/10/28 11:19:05;;;;;;;7.05;1.35;;;13.40;99.90;;;;;;5034645;28;20041;-57
2023/10/28 11:21:33;;;;;;;5.88;1.35;;;13.70;99.90;;;;;;5017640;28;20077;-56
2023/10/28 11:23:59;;;;;;;8.30;1.38;;;14.00;99.90;;;;;;5029346;28;20048;-61
2023/10/28 11:26:28;;;;;;;4.57;0.85;;;14.00;99.90;;;;;;5029293;28;20025;-59
2023/10/28 11:29:01;;;;;;;2.90;0.70;;;14.10;99.90;;;;;;5029525;28;20103;-59
2023/10/28 11:31:30;;;;;;;8.45;1.30;;;13.90;99.90;;;;;;5030064;28;20052;-58
2023/10/28 11:33:57;;;;;;;;;;;13.90;99.90;;;;;;5030421;28;20033;-59
2023/10/28 11:36:23;;;;;;;4.18;0.70;;;13.90;99.90;;;;;;5034963;28;19978;-58
2023/10/28 11:38:49;;;;;;;4.32;0.95;;;14.00;99.90;;;;;;5036338;28;20057;-58
2023/10/28 11:41:14;;;;;;;2.78;0.80;;;14.20;99.90;;;;;;5035349;28;20075;-58
2023/10/28 11:43:40;;;;;;;4.60;0.95;;;14.30;99.90;;;;;;5033313;28;20034;-58
2023/10/28 11:46:06;;;;;;;6.57;1.05;;;14.70;99.90;;;;;;5049684;28;20036;-58
2023/10/28 11:48:34;;;;;;;5.35;1.33;;;15.10;99.90;;;;;;5040516;28;20074;-58
2023/10/28 11:51:04;;;;;;;1.25;0.75;;;15.10;99.90;;;;;;5034766;28;20030;-59
2023/10/28 11:53:30;;;;;;;10.48;1.00;;;14.90;99.90;;;;;;5033504;28;20021;-59
2023/10/28 11:55:56;;;;;;;2.95;0.80;;;14.90;99.90;;;;;;5031833;28;20091;-59
2023/10/28 11:58:26;;;;;;;2.72;0.85;;;14.60;99.90;;;;;;5025635;28;20038;-60
2023/10/28 12:00:56;;;;;;;2.50;0.82;;;14.50;99.90;;;;;;5031372;28;20049;-59
2023/10/28 12:03:25;;;;;;;3.45;0.88;;;14.30;99.90;;;;;;5030911;28;20068;-59
2023/10/28 12:05:50;;;;;;;1.17;0.60;;;14.20;99.90;;;;;;5033064;28;20096;-59
2023/10/28 12:08:16;;;;;;;2.85;0.50;;;14.00;99.90;;;;;;5033160;28;20116;-58
2023/10/28 12:10:45;;;;;;;2.20;0.60;;;14.00;99.90;;;;;;5033407;28;20030;-59
2023/10/28 12:13:14;;;;;;;3.65;0.70;;;14.00;99.90;;;;;;5032876;28;20029;-59
2023/10/28 12:15:40;;;;;;;4.55;0.82;;;13.80;99.90;;;;;;5032417;28;20445;-57
2023/10/28 12:18:09;;;;;;;6.53;1.38;;;13.80;99.90;;;;;;5033321;28;20041;-57
2023/10/28 12:20:34;;;;;;;7.97;1.77;;;14.50;99.90;;;;;;5032162;28;20096;-59
2023/10/28 12:23:00;;;;;;;6.05;1.70;;;15.70;99.90;;;;;;5033271;28;20037;-59
2023/10/28 12:25:26;;;;;;;11.77;1.75;;;16.90;99.90;;;;;;5033145;28;20435;-59
2023/10/28 12:27:52;;;;;;;7.80;1.48;;;17.40;99.90;;;;;;5032144;28;20037;-59
2023/10/28 12:30:18;;;;;;;7.40;1.50;;;16.90;99.90;;;;;;5032938;28;20033;-57
2023/10/28 12:32:46;;;;;;;11.48;2.10;;;16.30;99.90;;;;;;5030905;28;20034;-56
2023/10/28 12:35:13;;;;;;;7.25;1.33;;;16.00;99.90;;;;;;5032616;28;20036;-57
2023/10/28 12:37:42;;;;;;;8.15;1.50;;;16.00;99.90;;;;;;5032487;28;20033;-57
2023/10/28 12:40:09;;;;;;;7.97;1.25;;;15.80;99.90;;;;;;5029449;28;20102;-57
2023/10/28 12:42:35;;;;;;;8.27;1.88;;;15.80;99.90;;;;;;5030588;28;20026;-60
2023/10/28 12:45:05;;;;;;;10.10;2.08;;;15.90;99.90;;;;;;5029215;28;20104;-58
2023/10/28 12:47:31;;;;;;;5.57;1.67;;;15.80;99.90;;;;;;5031212;28;20026;-58